sensor_id;sensor_type;location;lat;lon;timestamp;pressure;altitude;pressure_sealevel;temperature;humidity
27304;BME280;14791;52.392;13.092;2023-03-20T00:02:19;101130.82;;;17.79;45.04
27304;BME280;14791;52.392;13.092;2023-03-20T00:04:49;101130.22;;;17.76;45.11
27304;BME280;14791;52.392;13.092;2023-03-20T00:07:18;101132.19;;;17.74;45.14
27304;BME280;14791;52.392;13.092;2023-03-20T00:09:47;101134.16;;;17.72;45.24
27304;BME280;14791;52.392;13.092;2023-03-20T00:12:19;101129.75;;;17.71;45.31
27304;BME280;14791;52.392;13.092;2023-03-20T00:14:48;101135.51;;;17.72;45.36
27304;BME280;14791;52.392;13.092;2023-03-20T00:17:19;101138.71;;;17.71;45.43
27304;BME280;14791;52.392;13.092;2023-03-20T00:19:48;101142.53;;;17.69;45.46
27304;BME280;14791;52.392;13.092;2023-03-20T00:22:17;101139.37;;;17.63;45.56
27304;BME280;14791;52.392;13.092;2023-03-20T00:24:46;101141.34;;;17.61;45.66
27304;BME280;14791;52.392;13.092;2023-03-20T00:27:17;101131.16;;;17.59;45.72
27304;BME280;14791;52.392;13.092;2023-03-20T00:29:47;101132.16;;;17.58;45.80
27304;BME280;14791;52.392;13.092;2023-03-20T00:32:15;101129.95;;;17.58;45.87
27304;BME280;14791;52.392;13.092;2023-03-20T00:34:44;101126.38;;;17.57;45.91
27304;BME280;14791;52.392;13.092;2023-03-20T00:37:13;101128.11;;;17.58;45.88
27304;BME280;14791;52.392;13.092;2023-03-20T00:39:42;101127.98;;;17.60;45.88
27304;BME280;14791;52.392;13.092;2023-03-20T00:42:17;101130.30;;;17.59;45.90
27304;BME280;14791;52.392;13.092;2023-03-20T00:44:48;101128.73;;;17.56;45.90
27304;BME280;14791;52.392;13.092;2023-03-20T00:47:21;101129.73;;;17.55;45.96
27304;BME280;14791;52.392;13.092;2023-03-20T00:49:52;101130.34;;;17.53;45.99
27304;BME280;14791;52.392;13.092;2023-03-20T00:52:23;101128.27;;;17.51;46.02
27304;BME280;14791;52.392;13.092;2023-03-20T00:54:52;101129.38;;;17.49;46.07
27304;BME280;14791;52.392;13.092;2023-03-20T00:57:26;101118.70;;;17.47;46.14
27304;BME280;14791;52.392;13.092;2023-03-20T01:00:46;101114.65;;;17.47;46.20
27304;BME280;14791;52.392;13.092;2023-03-20T01:02:32;101114.65;;;17.47;46.26
27304;BME280;14791;52.392;13.092;2023-03-20T01:05:01;101114.65;;;17.47;46.24
27304;BME280;14791;52.392;13.092;2023-03-20T01:07:32;101111.67;;;17.50;46.20
27304;BME280;14791;52.392;13.092;2023-03-20T01:10:03;101114.64;;;17.53;46.18
27304;BME280;14791;52.392;13.092;2023-03-20T01:12:33;101119.27;;;17.56;46.21
27304;BME280;14791;52.392;13.092;2023-03-20T01:15:02;101124.05;;;17.58;46.18
27304;BME280;14791;52.392;13.092;2023-03-20T01:17:31;101121.97;;;17.56;46.15
27304;BME280;14791;52.392;13.092;2023-03-20T01:20:00;101126.64;;;17.54;46.12
27304;BME280;14791;52.392;13.092;2023-03-20T01:22:29;101125.18;;;17.50;46.18
27304;BME280;14791;52.392;13.092;2023-03-20T01:24:58;101119.70;;;17.46;46.27
27304;BME280;14791;52.392;13.092;2023-03-20T01:27:27;101128.53;;;17.42;46.34
27304;BME280;14791;52.392;13.092;2023-03-20T01:29:56;101125.61;;;17.40;46.38
27304;BME280;14791;52.392;13.092;2023-03-20T01:32:25;101123.52;;;17.38;46.38
27304;BME280;14791;52.392;13.092;2023-03-20T01:34:54;101128.22;;;17.36;46.44
27304;BME280;14791;52.392;13.092;2023-03-20T01:37:26;101137.29;;;17.35;46.49
27304;BME280;14791;52.392;13.092;2023-03-20T01:39:57;101141.61;;;17.32;46.52
27304;BME280;14791;52.392;13.092;2023-03-20T01:42:26;101136.09;;;17.28;46.56
27304;BME280;14791;52.392;13.092;2023-03-20T01:44:55;101139.67;;;17.22;46.63
27304;BME280;14791;52.392;13.092;2023-03-20T01:47:27;101130.95;;;17.19;46.68
27304;BME280;14791;52.392;13.092;2023-03-20T01:50:20;101136.77;;;17.14;46.76
27304;BME280;14791;52.392;13.092;2023-03-20T01:53:03;101141.05;;;17.11;46.81
27304;BME280;14791;52.392;13.092;2023-03-20T01:55:28;101140.09;;;17.01;46.90
27304;BME280;14791;52.392;13.092;2023-03-20T01:58:01;101135.58;;;16.96;47.00
27304;BME280;14791;52.392;13.092;2023-03-20T02:00:30;101137.66;;;16.92;47.06
27304;BME280;14791;52.392;13.092;2023-03-20T02:03:00;101137.06;;;16.89;47.14
27304;BME280;14791;52.392;13.092;2023-03-20T02:05:30;101133.98;;;16.88;47.26
27304;BME280;14791;52.392;13.092;2023-03-20T02:08:16;101136.68;;;16.88;47.34
27304;BME280;14791;52.392;13.092;2023-03-20T02:10:32;101139.77;;;16.89;47.36
27304;BME280;14791;52.392;13.092;2023-03-20T02:13:03;101145.89;;;16.91;47.39
27304;BME280;14791;52.392;13.092;2023-03-20T02:15:35;101148.94;;;16.92;47.38
27304;BME280;14791;52.392;13.092;2023-03-20T02:18:11;101142.59;;;16.93;47.36
27304;BME280;14791;52.392;13.092;2023-03-20T02:20:49;101149.44;;;16.91;47.37
27304;BME280;14791;52.392;13.092;2023-03-20T02:26:11;101149.20;;;16.89;47.40
27304;BME280;14791;52.392;13.092;2023-03-20T02:31:35;101144.56;;;16.79;47.58
27304;BME280;14791;52.392;13.092;2023-03-20T02:37:16;101145.16;;;16.72;47.65
27304;BME280;14791;52.392;13.092;2023-03-20T02:45:25;101143.33;;;16.55;47.82
27304;BME280;14791;52.392;13.092;2023-03-20T02:50:50;101149.09;;;16.51;48.06
27304;BME280;14791;52.392;13.092;2023-03-20T02:56:23;101147.14;;;16.47;48.22
27304;BME280;14791;52.392;13.092;2023-03-20T02:59:10;101142.82;;;16.45;48.22
27304;BME280;14791;52.392;13.092;2023-03-20T03:01:44;101146.77;;;16.41;48.24
27304;BME280;14791;52.392;13.092;2023-03-20T03:04:18;101146.13;;;16.37;48.31
27304;BME280;14791;52.392;13.092;2023-03-20T03:06:46;101151.42;;;16.33;48.39
27304;BME280;14791;52.392;13.092;2023-03-20T03:09:32;101145.05;;;16.28;48.47
27304;BME280;14791;52.392;13.092;2023-03-20T03:12:04;101148.84;;;16.26;48.53
27304;BME280;14791;52.392;13.092;2023-03-20T03:14:38;101145.16;;;16.21;48.62
27304;BME280;14791;52.392;13.092;2023-03-20T03:17:10;101148.08;;;16.18;48.65
27304;BME280;14791;52.392;13.092;2023-03-20T03:19:50;101151.38;;;16.16;48.73
27304;BME280;14791;52.392;13.092;2023-03-20T03:22:16;101150.53;;;16.15;48.81
27304;BME280;14791;52.392;13.092;2023-03-20T03:24:48;101152.37;;;16.15;48.87
27304;BME280;14791;52.392;13.092;2023-03-20T03:27:26;101154.95;;;16.16;48.90
27304;BME280;14791;52.392;13.092;2023-03-20T03:30:06;101157.66;;;16.16;48.91
27304;BME280;14791;52.392;13.092;2023-03-20T03:32:36;101153.72;;;16.15;48.95
27304;BME280;14791;52.392;13.092;2023-03-20T03:35:09;101160.34;;;16.16;49.00
27304;BME280;14791;52.392;13.092;2023-03-20T03:38:00;101155.81;;;16.17;49.00
27304;BME280;14791;52.392;13.092;2023-03-20T03:43:02;101160.20;;;16.18;48.98
27304;BME280;14791;52.392;13.092;2023-03-20T03:45:40;101150.66;;;16.20;49.00
27304;BME280;14791;52.392;13.092;2023-03-20T03:48:11;101161.94;;;16.19;48.95
27304;BME280;14791;52.392;13.092;2023-03-20T03:50:44;101154.46;;;16.17;49.02
27304;BME280;14791;52.392;13.092;2023-03-20T03:53:18;101152.51;;;16.19;49.08
27304;BME280;14791;52.392;13.092;2023-03-20T03:55:49;101152.86;;;16.20;49.11
27304;BME280;14791;52.392;13.092;2023-03-20T03:58:28;101160.45;;;16.21;49.10
27304;BME280;14791;52.392;13.092;2023-03-20T04:00:59;101159.10;;;16.21;49.08
27304;BME280;14791;52.392;13.092;2023-03-20T04:03:35;101161.94;;;16.19;49.10
27304;BME280;14791;52.392;13.092;2023-03-20T04:06:05;101158.86;;;16.18;49.13
27304;BME280;14791;52.392;13.092;2023-03-20T04:08:37;101161.70;;;16.16;49.20
27304;BME280;14791;52.392;13.092;2023-03-20T04:11:18;101161.20;;;16.17;49.27
27304;BME280;14791;52.392;13.092;2023-03-20T04:13:44;101164.98;;;16.20;49.26
27304;BME280;14791;52.392;13.092;2023-03-20T04:16:15;101168.78;;;16.18;49.24
27304;BME280;14791;52.392;13.092;2023-03-20T04:18:44;101171.98;;;16.17;49.28
27304;BME280;14791;52.392;13.092;2023-03-20T04:21:15;101176.02;;;16.17;49.30
27304;BME280;14791;52.392;13.092;2023-03-20T04:23:45;101177.37;;;16.17;49.35
27304;BME280;14791;52.392;13.092;2023-03-20T04:26:14;101175.63;;;16.16;49.38
27304;BME280;14791;52.392;13.092;2023-03-20T04:28:43;101179.07;;;16.18;49.43
27304;BME280;14791;52.392;13.092;2023-03-20T04:31:30;101178.72;;;16.17;49.44
27304;BME280;14791;52.392;13.092;2023-03-20T04:34:13;101172.58;;;16.15;49.50
27304;BME280;14791;52.392;13.092;2023-03-20T04:36:44;101174.92;;;16.14;49.56
27304;BME280;14791;52.392;13.092;2023-03-20T04:39:15;101180.06;;;16.17;49.56
27304;BME280;14791;52.392;13.092;2023-03-20T04:41:44;101179.95;;;16.19;49.58
27304;BME280;14791;52.392;13.092;2023-03-20T04:44:14;101174.81;;;16.21;49.57
27304;BME280;14791;52.392;13.092;2023-03-20T04:46:45;101178.60;;;16.24;49.58
27304;BME280;14791;52.392;13.092;2023-03-20T04:49:16;101183.74;;;16.27;49.52
27304;BME280;14791;52.392;13.092;2023-03-20T04:51:45;101183.63;;;16.29;49.46
27304;BME280;14791;52.392;13.092;2023-03-20T04:54:15;101186.83;;;16.28;49.44
27304;BME280;14791;52.392;13.092;2023-03-20T04:56:44;101184.34;;;16.25;49.48
27304;BME280;14791;52.392;13.092;2023-03-20T04:59:15;101188.39;;;16.25;49.53
27304;BME280;14791;52.392;13.092;2023-03-20T05:01:44;101183.14;;;16.24;49.52
27304;BME280;14791;52.392;13.092;2023-03-20T05:04:13;101187.79;;;16.22;49.47
27304;BME280;14791;52.392;13.092;2023-03-20T05:06:43;101191.20;;;16.18;49.48
27304;BME280;14791;52.392;13.092;2023-03-20T05:09:14;101185.70;;;16.14;49.54
27304;BME280;14791;52.392;13.092;2023-03-20T05:11:43;101188.75;;;16.09;49.63
27304;BME280;14791;52.392;13.092;2023-03-20T05:14:14;101194.49;;;16.05;49.67
27304;BME280;14791;52.392;13.092;2023-03-20T05:16:44;101188.97;;;16.01;49.75
27304;BME280;14791;52.392;13.092;2023-03-20T05:19:21;101191.52;;;15.97;49.87
27304;BME280;14791;52.392;13.092;2023-03-20T05:21:51;101194.20;;;15.91;49.92
27304;BME280;14791;52.392;13.092;2023-03-20T05:24:22;101189.17;;;15.86;49.98
27304;BME280;14791;52.392;13.092;2023-03-20T05:26:53;101192.11;;;15.83;50.04
27304;BME280;14791;52.392;13.092;2023-03-20T05:29:42;101193.80;;;15.79;50.07
27304;BME280;14791;52.392;13.092;2023-03-20T05:32:15;101199.39;;;15.70;50.18
27304;BME280;14791;52.392;13.092;2023-03-20T05:35:01;101199.24;;;15.66;50.29
27304;BME280;14791;52.392;13.092;2023-03-20T05:37:33;101192.60;;;15.59;50.38
27304;BME280;14791;52.392;13.092;2023-03-20T05:40:07;101196.36;;;15.56;50.46
27304;BME280;14791;52.392;13.092;2023-03-20T05:42:54;101195.39;;;15.51;50.59
27304;BME280;14791;52.392;13.092;2023-03-20T05:45:31;101193.50;;;15.46;50.66
27304;BME280;14791;52.392;13.092;2023-03-20T05:48:13;101198.52;;;15.45;50.77
27304;BME280;14791;52.392;13.092;2023-03-20T05:50:44;101196.82;;;15.44;50.88
27304;BME280;14791;52.392;13.092;2023-03-20T05:53:14;101197.54;;;15.46;50.92
27304;BME280;14791;52.392;13.092;2023-03-20T05:55:45;101194.73;;;15.48;50.99
27304;BME280;14791;52.392;13.092;2023-03-20T05:58:32;101201.73;;;15.50;51.02
27304;BME280;14791;52.392;13.092;2023-03-20T06:01:19;101206.75;;;15.49;51.05
27304;BME280;14791;52.392;13.092;2023-03-20T06:03:59;101210.89;;;15.48;51.04
27304;BME280;14791;52.392;13.092;2023-03-20T06:06:33;101224.45;;;15.46;51.05
27304;BME280;14791;52.392;13.092;2023-03-20T06:09:04;101230.33;;;15.46;51.09
27304;BME280;14791;52.392;13.092;2023-03-20T06:11:34;101234.86;;;15.45;51.18
27304;BME280;14791;52.392;13.092;2023-03-20T06:14:04;101237.56;;;15.45;51.23
27304;BME280;14791;52.392;13.092;2023-03-20T06:16:37;101241.95;;;15.46;51.32
27304;BME280;14791;52.392;13.092;2023-03-20T06:19:06;101245.53;;;15.47;51.29
27304;BME280;14791;52.392;13.092;2023-03-20T06:21:37;101245.53;;;15.47;51.29
27304;BME280;14791;52.392;13.092;2023-03-20T06:24:07;101256.40;;;15.45;51.24
27304;BME280;14791;52.392;13.092;2023-03-20T06:26:36;101267.77;;;15.43;51.28
27304;BME280;14791;52.392;13.092;2023-03-20T06:29:07;101272.04;;;15.40;51.19
27304;BME280;14791;52.392;13.092;2023-03-20T06:31:36;101272.38;;;15.36;51.20
27304;BME280;14791;52.392;13.092;2023-03-20T06:34:06;101269.16;;;15.30;51.22
27304;BME280;14791;52.392;13.092;2023-03-20T06:36:36;101273.53;;;15.26;51.21
27304;BME280;14791;52.392;13.092;2023-03-20T06:39:07;101274.36;;;15.21;51.25
27304;BME280;14791;52.392;13.092;2023-03-20T06:41:37;101279.94;;;15.18;51.32
27304;BME280;14791;52.392;13.092;2023-03-20T06:44:07;101288.73;;;15.14;51.33
27304;BME280;14791;52.392;13.092;2023-03-20T06:46:54;101295.78;;;15.09;51.35
27304;BME280;14791;52.392;13.092;2023-03-20T06:49:25;101289.22;;;15.01;51.34
27304;BME280;14791;52.392;13.092;2023-03-20T06:51:55;101301.20;;;14.97;51.43
27304;BME280;14791;52.392;13.092;2023-03-20T06:54:26;101296.02;;;14.94;51.51
27304;BME280;14791;52.392;13.092;2023-03-20T06:56:55;101300.05;;;14.94;51.44
27304;BME280;14791;52.392;13.092;2023-03-20T06:59:24;101297.95;;;14.92;51.36
27304;BME280;14791;52.392;13.092;2023-03-20T07:01:55;101297.22;;;14.89;51.33
27304;BME280;14791;52.392;13.092;2023-03-20T07:04:25;101303.68;;;14.87;51.42
27304;BME280;14791;52.392;13.092;2023-03-20T07:06:56;101302.80;;;14.86;51.54
27304;BME280;14791;52.392;13.092;2023-03-20T07:09:25;101310.02;;;14.86;51.59
27304;BME280;14791;52.392;13.092;2023-03-20T07:11:55;101305.48;;;14.86;51.63
27304;BME280;14791;52.392;13.092;2023-03-20T07:14:25;101305.39;;;14.88;51.63
27304;BME280;14791;52.392;13.092;2023-03-20T07:16:55;101311.53;;;14.90;51.60
27304;BME280;14791;52.392;13.092;2023-03-20T07:19:25;101296.73;;;14.90;51.60
27304;BME280;14791;52.392;13.092;2023-03-20T07:21:58;101304.58;;;14.93;51.62
27304;BME280;14791;52.392;13.092;2023-03-20T07:24:34;101307.03;;;14.96;51.57
27304;BME280;14791;52.392;13.092;2023-03-20T07:27:03;101310.97;;;14.98;51.58
27304;BME280;14791;52.392;13.092;2023-03-20T07:29:33;101306.84;;;14.99;51.55
27304;BME280;14791;52.392;13.092;2023-03-20T07:32:06;101305.77;;;15.02;51.57
27304;BME280;14791;52.392;13.092;2023-03-20T07:34:36;101304.68;;;15.04;51.60
27304;BME280;14791;52.392;13.092;2023-03-20T07:37:06;101310.59;;;15.09;51.65
27304;BME280;14791;52.392;13.092;2023-03-20T07:39:35;101315.54;;;15.16;51.69
27304;BME280;14791;52.392;13.092;2023-03-20T07:42:22;101323.16;;;15.22;51.61
27304;BME280;14791;52.392;13.092;2023-03-20T07:44:52;101316.20;;;15.25;51.60
27304;BME280;14791;52.392;13.092;2023-03-20T07:47:24;101322.99;;;15.30;51.56
27304;BME280;14791;52.392;13.092;2023-03-20T07:49:53;101318.23;;;15.34;51.53
27304;BME280;14791;52.392;13.092;2023-03-20T07:52:23;101315.27;;;15.44;51.59
27304;BME280;14791;52.392;13.092;2023-03-20T07:54:53;101318.60;;;15.53;51.56
27304;BME280;14791;52.392;13.092;2023-03-20T07:57:22;101315.37;;;15.61;51.43
27304;BME280;14791;52.392;13.092;2023-03-20T07:59:53;101320.09;;;15.70;51.42
27304;BME280;14791;52.392;13.092;2023-03-20T08:02:22;101318.55;;;15.79;51.25
27304;BME280;14791;52.392;13.092;2023-03-20T08:04:53;101323.50;;;15.85;51.10
27304;BME280;14791;52.392;13.092;2023-03-20T08:07:22;101323.02;;;15.91;50.91
27304;BME280;14791;52.392;13.092;2023-03-20T08:09:51;101329.91;;;15.95;50.69
27304;BME280;14791;52.392;13.092;2023-03-20T08:12:20;101334.20;;;15.98;50.54
27304;BME280;14791;52.392;13.092;2023-03-20T08:14:49;101334.95;;;16.00;50.45
27304;BME280;14791;52.392;13.092;2023-03-20T08:17:18;101337.52;;;16.02;50.37
27304;BME280;14791;52.392;13.092;2023-03-20T08:19:48;101343.29;;;16.03;50.22
27304;BME280;14791;52.392;13.092;2023-03-20T08:22:17;101345.13;;;16.02;50.10
27304;BME280;14791;52.392;13.092;2023-03-20T08:24:46;101347.33;;;16.03;50.13
27304;BME280;14791;52.392;13.092;2023-03-20T08:27:15;101344.64;;;16.03;50.11
27304;BME280;14791;52.392;13.092;2023-03-20T08:29:44;101339.61;;;16.04;50.17
27304;BME280;14791;52.392;13.092;2023-03-20T08:32:14;101335.36;;;16.07;50.22
27304;BME280;14791;52.392;13.092;2023-03-20T08:34:43;101338.56;;;16.12;50.19
27304;BME280;14791;52.392;13.092;2023-03-20T08:37:12;101335.02;;;16.17;50.13
27304;BME280;14791;52.392;13.092;2023-03-20T08:39:42;101330.50;;;16.23;50.06
27304;BME280;14791;52.392;13.092;2023-03-20T08:42:11;101330.05;;;16.29;50.01
27304;BME280;14791;52.392;13.092;2023-03-20T08:44:40;101333.98;;;16.36;49.93
27304;BME280;14791;52.392;13.092;2023-03-20T08:47:09;101332.55;;;16.44;49.88
27304;BME280;14791;52.392;13.092;2023-03-20T08:49:38;101333.78;;;16.51;49.86
27304;BME280;14791;52.392;13.092;2023-03-20T08:52:07;101337.38;;;16.63;49.68
27304;BME280;14791;52.392;13.092;2023-03-20T08:54:36;101335.42;;;16.70;49.41
27304;BME280;14791;52.392;13.092;2023-03-20T08:57:05;101346.88;;;16.79;49.20
27304;BME280;14791;52.392;13.092;2023-03-20T08:59:34;101344.92;;;16.82;48.86
27304;BME280;14791;52.392;13.092;2023-03-20T09:02:03;101351.92;;;16.84;48.58
27304;BME280;14791;52.392;13.092;2023-03-20T09:04:32;101353.38;;;16.83;48.43
27304;BME280;14791;52.392;13.092;2023-03-20T09:07:01;101351.67;;;16.82;48.50
27304;BME280;14791;52.392;13.092;2023-03-20T09:09:30;101353.02;;;16.82;48.52
27304;BME280;14791;52.392;13.092;2023-03-20T09:12:00;101350.07;;;16.85;48.56
27304;BME280;14791;52.392;13.092;2023-03-20T09:14:30;101348.02;;;16.88;48.49
27304;BME280;14791;52.392;13.092;2023-03-20T09:16:59;101344.95;;;16.93;48.40
27304;BME280;14791;52.392;13.092;2023-03-20T09:19:28;101348.25;;;16.96;48.31
27304;BME280;14791;52.392;13.092;2023-03-20T09:21:57;101346.89;;;17.02;48.29
27304;BME280;14791;52.392;13.092;2023-03-20T09:24:26;101343.72;;;17.08;48.18
27304;BME280;14791;52.392;13.092;2023-03-20T09:26:56;101344.20;;;17.13;48.18
27304;BME280;14791;52.392;13.092;2023-03-20T09:29:25;101342.73;;;17.20;48.08
27304;BME280;14791;52.392;13.092;2023-03-20T09:31:54;101339.17;;;17.26;47.88
27304;BME280;14791;52.392;13.092;2023-03-20T09:34:25;101341.16;;;17.29;47.84
27304;BME280;14791;52.392;13.092;2023-03-20T09:36:54;101344.22;;;17.36;47.79
27304;BME280;14791;52.392;13.092;2023-03-20T09:39:23;101340.66;;;17.41;47.65
27304;BME280;14791;52.392;13.092;2023-03-20T09:41:52;101340.53;;;17.48;47.45
27304;BME280;14791;52.392;13.092;2023-03-20T09:49:44;101339.38;;;17.68;46.78
27304;BME280;14791;52.392;13.092;2023-03-20T09:52:25;101345.03;;;17.70;46.48
27304;BME280;14791;52.392;13.092;2023-03-20T09:55:00;101347.23;;;17.71;46.27
27304;BME280;14791;52.392;13.092;2023-03-20T09:57:40;101354.84;;;17.71;46.22
27304;BME280;14791;52.392;13.092;2023-03-20T10:00:18;101348.23;;;17.70;46.07
27304;BME280;14791;52.392;13.092;2023-03-20T10:03:04;101350.80;;;17.65;45.98
27304;BME280;14791;52.392;13.092;2023-03-20T10:05:41;101350.33;;;17.60;45.97
27304;BME280;14791;52.392;13.092;2023-03-20T10:08:15;101356.22;;;17.54;45.92
27304;BME280;14791;52.392;13.092;2023-03-20T10:10:56;101352.03;;;17.50;45.93
27304;BME280;14791;52.392;13.092;2023-03-20T10:13:47;101354.64;;;17.46;45.95
27304;BME280;14791;52.392;13.092;2023-03-20T10:19:22;101347.89;;;17.35;46.01
27304;BME280;14791;52.392;13.092;2023-03-20T10:22:16;101356.25;;;17.32;46.11
27304;BME280;14791;52.392;13.092;2023-03-20T10:24:37;101358.81;;;17.28;46.16
27304;BME280;14791;52.392;13.092;2023-03-20T10:27:20;101345.42;;;17.26;46.19
27304;BME280;14791;52.392;13.092;2023-03-20T10:29:54;101343.22;;;17.26;46.22
27304;BME280;14791;52.392;13.092;2023-03-20T10:32:37;101342.62;;;17.28;46.27
27304;BME280;14791;52.392;13.092;2023-03-20T10:35:12;101345.70;;;17.29;46.26
27304;BME280;14791;52.392;13.092;2023-03-20T10:37:45;101347.15;;;17.33;46.18
27304;BME280;14791;52.392;13.092;2023-03-20T10:40:24;101342.88;;;17.36;46.05
27304;BME280;14791;52.392;13.092;2023-03-20T10:42:56;101338.68;;;17.37;45.94
27304;BME280;14791;52.392;13.092;2023-03-20T10:45:40;101345.31;;;17.39;45.87
27304;BME280;14791;52.392;13.092;2023-03-20T10:50:58;101335.48;;;17.38;45.89
27304;BME280;14791;52.392;13.092;2023-03-20T10:53:37;101341.63;;;17.40;45.85
27304;BME280;14791;52.392;13.092;2023-03-20T10:56:09;101338.31;;;17.42;45.76
27304;BME280;14791;52.392;13.092;2023-03-20T10:58:43;101340.27;;;17.40;45.71
27304;BME280;14791;52.392;13.092;2023-03-20T11:01:13;101342.62;;;17.39;45.71
27304;BME280;14791;52.392;13.092;2023-03-20T11:03:43;101349.72;;;17.40;45.73
27304;BME280;14791;52.392;13.092;2023-03-20T11:06:27;101342.36;;;17.42;45.71
27304;BME280;14791;52.392;13.092;2023-03-20T11:08:56;101342.01;;;17.41;45.63
27304;BME280;14791;52.392;13.092;2023-03-20T11:11:29;101326.42;;;17.39;45.68
27304;BME280;14791;52.392;13.092;2023-03-20T11:14:15;101328.97;;;17.40;45.70
27304;BME280;14791;52.392;13.092;2023-03-20T11:16:40;101329.24;;;17.43;45.74
27304;BME280;14791;52.392;13.092;2023-03-20T11:19:10;101331.69;;;17.46;45.76
27304;BME280;14791;52.392;13.092;2023-03-20T11:21:50;101338.42;;;17.52;45.74
27304;BME280;14791;52.392;13.092;2023-03-20T11:24:37;101331.80;;;17.56;45.66
27304;BME280;14791;52.392;13.092;2023-03-20T11:27:11;101326.38;;;17.61;45.48
27304;BME280;14791;52.392;13.092;2023-03-20T11:29:42;101335.21;;;17.63;45.37
27304;BME280;14791;52.392;13.092;2023-03-20T11:34:48;101333.84;;;17.75;45.33
27304;BME280;14791;52.392;13.092;2023-03-20T11:37:26;101327.56;;;17.80;45.22
27304;BME280;14791;52.392;13.092;2023-03-20T11:40:00;101323.40;;;17.87;45.03
27304;BME280;14791;52.392;13.092;2023-03-20T11:42:30;101323.13;;;17.90;44.86
27304;BME280;14791;52.392;13.092;2023-03-20T11:45:03;101314.41;;;17.92;44.76
27304;BME280;14791;52.392;13.092;2023-03-20T11:47:33;101322.63;;;17.96;44.56
27304;BME280;14791;52.392;13.092;2023-03-20T11:50:05;101321.28;;;17.96;44.45
27304;BME280;14791;52.392;13.092;2023-03-20T11:52:36;101317.73;;;17.96;44.44
27304;BME280;14791;52.392;13.092;2023-03-20T11:55:22;101304.80;;;17.99;44.47
27304;BME280;14791;52.392;13.092;2023-03-20T11:57:40;101311.29;;;18.02;44.41
27304;BME280;14791;52.392;13.092;2023-03-20T12:00:19;101303.56;;;18.03;44.27
27304;BME280;14791;52.392;13.092;2023-03-20T12:02:50;101305.41;;;18.03;44.17
27304;BME280;14791;52.392;13.092;2023-03-20T12:05:34;101311.91;;;18.00;44.15
27304;BME280;14791;52.392;13.092;2023-03-20T12:08:12;101308.50;;;17.98;44.14
27304;BME280;14791;52.392;13.092;2023-03-20T12:10:45;101301.25;;;17.93;44.20
27304;BME280;14791;52.392;13.092;2023-03-20T12:13:39;101294.14;;;17.92;44.33
27304;BME280;14791;52.392;13.092;2023-03-20T12:16:12;101289.23;;;17.92;44.36
27304;BME280;14791;52.392;13.092;2023-03-20T12:18:48;101294.41;;;17.89;44.43
27304;BME280;14791;52.392;13.092;2023-03-20T12:21:21;101292.20;;;17.89;44.53
27304;BME280;14791;52.392;13.092;2023-03-20T12:23:58;101289.09;;;17.93;44.51
27304;BME280;14791;52.392;13.092;2023-03-20T12:29:35;101286.61;;;18.01;44.26
27304;BME280;14791;52.392;13.092;2023-03-20T12:32:14;101274.06;;;18.00;44.18
27304;BME280;14791;52.392;13.092;2023-03-20T12:34:47;101272.72;;;18.00;44.16
27304;BME280;14791;52.392;13.092;2023-03-20T12:37:16;101273.83;;;18.03;44.14
27304;BME280;14791;52.392;13.092;2023-03-20T12:39:48;101266.80;;;18.06;44.03
27304;BME280;14791;52.392;13.092;2023-03-20T12:45:19;101264.80;;;18.14;43.90
27304;BME280;14791;52.392;13.092;2023-03-20T12:48:15;101260.73;;;18.14;43.77
27304;BME280;14791;52.392;13.092;2023-03-20T12:50:49;101263.21;;;18.12;43.69
27304;BME280;14791;52.392;13.092;2023-03-20T13:01:44;101258.27;;;17.90;43.54
27304;BME280;14791;52.392;13.092;2023-03-20T13:06:59;101258.20;;;17.80;43.87
27304;BME280;14791;52.392;13.092;2023-03-20T13:12:37;101251.67;;;17.83;44.07
27304;BME280;14791;52.392;13.092;2023-03-20T13:18:07;101248.81;;;17.90;44.03
27304;BME280;14791;52.392;13.092;2023-03-20T13:20:50;101251.41;;;17.92;44.06
27304;BME280;14791;52.392;13.092;2023-03-20T13:23:22;101251.98;;;17.95;44.03
27304;BME280;14791;52.392;13.092;2023-03-20T13:26:11;101251.86;;;17.97;43.97
27304;BME280;14791;52.392;13.092;2023-03-20T13:28:44;101245.34;;;17.99;43.87
27304;BME280;14791;52.392;13.092;2023-03-20T13:31:23;101243.14;;;17.99;43.88
27304;BME280;14791;52.392;13.092;2023-03-20T13:36:55;101243.72;;;18.02;43.98
27304;BME280;14791;52.392;13.092;2023-03-20T13:39:26;101231.55;;;18.02;44.02
27304;BME280;14791;52.392;13.092;2023-03-20T13:41:56;101229.58;;;18.04;43.99
27304;BME280;14791;52.392;13.092;2023-03-20T13:44:28;101231.05;;;18.09;43.90
27304;BME280;14791;52.392;13.092;2023-03-20T13:47:00;101237.19;;;18.11;43.83
27304;BME280;14791;52.392;13.092;2023-03-20T13:49:38;101229.42;;;18.12;43.72
27304;BME280;14791;52.392;13.092;2023-03-20T13:52:27;101227.72;;;18.11;43.72
27304;BME280;14791;52.392;13.092;2023-03-20T14:01:01;101221.75;;;18.01;43.79
27304;BME280;14791;52.392;13.092;2023-03-20T14:03:34;101229.02;;;17.95;43.89
27304;BME280;14791;52.392;13.092;2023-03-20T14:09:00;101236.31;;;17.89;43.89
27304;BME280;14791;52.392;13.092;2023-03-20T14:11:32;101232.41;;;17.82;43.98
27304;BME280;14791;52.392;13.092;2023-03-20T14:14:23;101236.66;;;17.79;44.01
27304;BME280;14791;52.392;13.092;2023-03-20T14:17:00;101231.41;;;17.77;44.07
27304;BME280;14791;52.392;13.092;2023-03-20T14:19:30;101231.41;;;17.72;44.19
27304;BME280;14791;52.392;13.092;2023-03-20T14:21:59;101230.95;;;17.67;44.33